HAAB/ADD METAR and TAF weather

Enter ICAO airport designator
Station Type Date Time Source
HAAB METAR 2020/12/06 02:00 UTC NOAA

HAAB 060200Z 34004KT 9999 FEW025 12/08 Q1027


Station Type Date Time Source
HAAB Decoded METAR 2020/12/06 02:00 UTC NOAA

Addis Ababa, Ethiopia (HAAB) 08-59N 038-48E 2324M
Dec 05, 2020 - 09:00 PM EST / 2020.12.06 0200 UTC
Wind: from the NNW (340 degrees) at 5 MPH (4 KT):0
Visibility: greater than 7 mile(s):0
Sky conditions: mostly clear
Temperature: 53 F (12 C)
Dew Point: 46 F (8 C)
Relative Humidity: 76%
Pressure (altimeter): 30.33 in. Hg (1027 hPa)
ob: HAAB 060200Z 34004KT 9999 FEW025 12/08 Q1027
cycle: 2

Station Type Date Time Source
HAAB TAF 2020/12/05 18:20 UTC NOAA

TAF HAAB 051530Z 0518/0624 09005KT 9999 FEW025 FEW090

Example: see airport list